Coaling, AL

4:40 PM CDT on September 03, 2015 (GMT -0500)
APRSWXNET | | Change Station
CLOSE
Current Station
Personal Weather Station
Location: Searles, AL
Elevation: 580 ft
Nearby Weather Stations

Elev 580 ft 33.26 °N, 87.31 °W | Updated 21 minutes ago

Mostly Cloudy
Mostly Cloudy
90 °F
Feels Like 94 °F
N
3
Wind Variable Wind from NNE
Gusts 8.0 mph

Today
High -- | Low -- °F
--% Chance of Precip.
Yesterday
High -- | Low -- °F
Precip. -- in
6:24 AM 7:12 PM
Waning Gibbous, 66% visible
Pressure 29.92 in
Visibility 9.0 miles
Clouds Clear
Heat Index 94 °F
Dew Point 68 °F
Humidity 49%
Rainfall in
Snow Depth Not available.
UV 5 out of 12
Pollen 8.80 out of 12
Air Quality Not available.
Flu Activity Not available.
METAR KTCL 032053Z 35007KT 9SM CLR 34/20 A2992 RMK AO2 SLP130 T03390200 58020
Pressure 29.92 in
Visibility 9.0 miles
Clouds Clear
Heat Index 94 °F
Dew Point 68 °F
Humidity 49%
Rainfall in
Snow Depth Not available.
UV 5 out of 12
Pollen 8.80 out of 12
Air Quality Not available.
Flu Activity Not available.
METAR KTCL 032053Z 35007KT 9SM CLR 34/20 A2992 RMK AO2 SLP130 T03390200 58020

10-Day Weather Forecast

×

Almanac

Astronomy

Sep. 03, 2015 Rise Set
Actual Time
Civil Twilight
Nautical Twilight
Astronomical Twilight
Moon
Length of Visible Light
Length of Day
Tomorrow will be .
, % of the Moon is Illuminated

Today's Extremes

State Highs State Lows

Community

WunderPhotos

Upload Photos

1,852,043 photos uploaded!

WunderBlogs® & News

Nearby

Air Quality

  Air Quality AQ Index Pollutant
Not available.

Snow Depth

Station Depth Elevation

Earthquake Activity

City Distance Mag. Time & Date
Minimum magnitude displayed is 2.5.

Coastal Water Temperatures

Place Temperature

Stations

Nearby Weather Stations

Station Location Temp. Windchill Dew Point Humidity Wind Precip. Elev Updated Type